Station Historical Data
Daily Summary for January 16, 2017 Units:  Both    English   Metric
« Previous Day
Next Day »
Daily Weekly Monthly Yearly Custom
  High: Low: Average:
Temperature: 36.1 °F /  2.3 °C 18.1 °F /  -7.7 °C 26.4 °F /  -3.1 °C
Dew Point: 28.0 °F /  -2.2 °C 15.1 °F /  -9.4 °C 20.3 °F /  -6.5 °C
Humidity: 91% 62% 78%
Wind Speed: 14.0mph /  22.5km/h - 0.9mph /  1.4km/h
Wind Gust: 14.0mph /  22.5km/h - -
Wind- - SSW
Pressure: 30.42 in /  1030 hPa 30.25 in /  1024.3 hPa -
Precipitation: 0.00 in /  0 mm    
Historical Graphs
 
 
Tabular Data for January 16, 2017
Time Temperature Dew Point Pressure Wind Wind Speed Wind Gust Humidity Rainfall Rate (Hourly)
00:04 20.3 °F /  -6.5 °C 17.3 °F /  -8.2 °C 30.41in /  1029.7hPa Calm     88% 0.00in /  0mm
00:09 20.0 °F /  -6.7 °C 16.8 °F /  -8.4 °C 30.41in /  1029.7hPa Calm     87% 0.00in /  0mm
00:14 20.1 °F /  -6.6 °C 17.1 °F /  -8.3 °C 30.40in /  1029.3hPa Calm     88% 0.00in /  0mm
00:19 19.9 °F /  -6.7 °C 16.9 °F /  -8.4 °C 30.40in /  1029.3hPa Calm     88% 0.00in /  0mm
00:24 20.0 °F /  -6.7 °C 16.8 °F /  -8.4 °C 30.40in /  1029.3hPa Calm     87% 0.00in /  0mm
00:29 19.7 °F /  -6.8 °C 16.7 °F /  -8.5 °C 30.40in /  1029.3hPa Calm     88% 0.00in /  0mm
00:34 19.5 °F /  -6.9 °C 16.3 °F /  -8.7 °C 30.40in /  1029.3hPa Calm     87% 0.00in /  0mm
00:39 19.3 °F /  -7.1 °C 16.3 °F /  -8.7 °C 30.40in /  1029.3hPa Calm     88% 0.00in /  0mm
00:44 19.1 °F /  -7.2 °C 16.1 °F /  -8.8 °C 30.40in /  1029.3hPa Calm     88% 0.00in /  0mm
00:49 19.0 °F /  -7.2 °C 16.0 °F /  -8.9 °C 30.40in /  1029.3hPa Calm     88% 0.00in /  0mm
00:54 19.0 °F /  -7.2 °C 16.0 °F /  -8.9 °C 30.40in /  1029.3hPa Calm     88% 0.00in /  0mm
00:59 18.8 °F /  -7.3 °C 15.8 °F /  -9 °C 30.40in /  1029.3hPa Calm     88% 0.00in /  0mm
01:04 18.4 °F /  -7.6 °C 15.2 °F /  -9.3 °C 30.40in /  1029.3hPa Calm     87% 0.00in /  0mm
01:09 18.4 °F /  -7.6 °C 15.4 °F /  -9.2 °C 30.40in /  1029.3hPa Calm     88% 0.00in /  0mm
01:14 18.5 °F /  -7.5 °C 15.5 °F /  -9.2 °C 30.40in /  1029.3hPa Calm     88% 0.00in /  0mm
01:19 18.5 °F /  -7.5 °C 15.5 °F /  -9.2 °C 30.40in /  1029.3hPa Calm     88% 0.00in /  0mm
01:24 18.6 °F /  -7.4 °C 15.9 °F /  -8.9 °C 30.40in /  1029.3hPa Calm     89% 0.00in /  0mm
01:29 18.6 °F /  -7.4 °C 15.9 °F /  -8.9 °C 30.40in /  1029.3hPa Calm     89% 0.00in /  0mm
01:34 18.6 °F /  -7.4 °C 15.9 °F /  -8.9 °C 30.40in /  1029.3hPa Calm     89% 0.00in /  0mm
01:39 18.6 °F /  -7.4 °C 15.6 °F /  -9.1 °C 30.40in /  1029.3hPa Calm     88% 0.00in /  0mm
01:44 18.6 °F /  -7.4 °C 15.6 °F /  -9.1 °C 30.40in /  1029.3hPa Calm     88% 0.00in /  0mm
01:49 18.8 °F /  -7.3 °C 16.1 °F /  -8.8 °C 30.40in /  1029.3hPa Calm     89% 0.00in /  0mm
01:54 18.8 °F /  -7.3 °C 16.1 °F /  -8.8 °C 30.41in /  1029.7hPa Calm     89% 0.00in /  0mm
01:59 18.8 °F /  -7.3 °C 16.1 °F /  -8.8 °C 30.41in /  1029.7hPa Calm     89% 0.00in /  0mm
02:04 19.0 °F /  -7.2 °C 16.3 °F /  -8.7 °C 30.41in /  1029.7hPa Calm     89% 0.00in /  0mm
02:09 19.1 °F /  -7.2 °C 16.4 °F /  -8.7 °C 30.41in /  1029.7hPa Calm     89% 0.00in /  0mm
02:14 19.3 °F /  -7.1 °C 16.3 °F /  -8.7 °C 30.41in /  1029.7hPa Calm     88% 0.00in /  0mm
02:19 19.3 °F /  -7.1 °C 16.3 °F /  -8.7 °C 30.41in /  1029.7hPa Calm     88% 0.00in /  0mm
02:24 19.3 °F /  -7.1 °C 16.3 °F /  -8.7 °C 30.41in /  1029.7hPa Calm     88% 0.00in /  0mm
02:29 19.5 °F /  -6.9 °C 16.5 °F /  -8.6 °C 30.42in /  1030hPa Calm     88% 0.00in /  0mm
02:34 19.6 °F /  -6.9 °C 16.4 °F /  -8.7 °C 30.42in /  1030hPa Calm     87% 0.00in /  0mm
02:39 19.5 °F /  -6.9 °C 16.3 °F /  -8.7 °C 30.42in /  1030hPa Calm     87% 0.00in /  0mm
02:44 19.6 °F /  -6.9 °C 16.4 °F /  -8.7 °C 30.42in /  1030hPa Calm     87% 0.00in /  0mm
02:49 19.6 °F /  -6.9 °C 16.4 °F /  -8.7 °C 30.42in /  1030hPa Calm     87% 0.00in /  0mm
02:54 19.5 °F /  -6.9 °C 16.3 °F /  -8.7 °C 30.42in /  1030hPa Calm     87% 0.00in /  0mm
02:59 19.5 °F /  -6.9 °C 16.0 °F /  -8.9 °C 30.42in /  1030hPa Calm     86% 0.00in /  0mm
03:04 19.3 °F /  -7.1 °C 15.8 °F /  -9 °C 30.41in /  1029.7hPa Calm     86% 0.00in /  0mm
03:09 19.1 °F /  -7.2 °C 15.6 °F /  -9.1 °C 30.41in /  1029.7hPa Calm     86% 0.00in /  0mm
03:14 18.9 °F /  -7.3 °C 15.4 °F /  -9.2 °C 30.41in /  1029.7hPa Calm     86% 0.00in /  0mm
03:19 18.9 °F /  -7.3 °C 15.7 °F /  -9.1 °C 30.41in /  1029.7hPa Calm     87% 0.00in /  0mm
03:24 18.8 °F /  -7.3 °C 15.3 °F /  -9.3 °C 30.41in /  1029.7hPa Calm     86% 0.00in /  0mm
03:29 18.8 °F /  -7.3 °C 15.6 °F /  -9.1 °C 30.40in /  1029.3hPa Calm     87% 0.00in /  0mm
03:34 18.7 °F /  -7.4 °C 15.5 °F /  -9.2 °C 30.40in /  1029.3hPa Calm     87% 0.00in /  0mm
03:39 18.8 °F /  -7.3 °C 15.6 °F /  -9.1 °C 30.40in /  1029.3hPa Calm     87% 0.00in /  0mm
03:44 18.6 °F /  -7.4 °C 15.4 °F /  -9.2 °C 30.40in /  1029.3hPa Calm     87% 0.00in /  0mm
03:49 18.5 °F /  -7.5 °C 15.3 °F /  -9.3 °C 30.40in /  1029.3hPa Calm     87% 0.00in /  0mm
03:54 18.5 °F /  -7.5 °C 15.3 °F /  -9.3 °C 30.39in /  1029hPa Calm     87% 0.00in /  0mm
03:59 18.5 °F /  -7.5 °C 15.3 °F /  -9.3 °C 30.40in /  1029.3hPa Calm     87% 0.00in /  0mm
04:04 18.6 °F /  -7.4 °C 15.4 °F /  -9.2 °C 30.40in /  1029.3hPa Calm     87% 0.00in /  0mm
04:09 18.8 °F /  -7.3 °C 15.6 °F /  -9.1 °C 30.39in /  1029hPa Calm     87% 0.00in /  0mm
04:14 18.9 °F /  -7.3 °C 15.7 °F /  -9.1 °C 30.39in /  1029hPa Calm     87% 0.00in /  0mm
04:19 19.0 °F /  -7.2 °C 15.8 °F /  -9 °C 30.39in /  1029hPa Calm     87% 0.00in /  0mm
04:24 19.0 °F /  -7.2 °C 15.8 °F /  -9 °C 30.39in /  1029hPa Calm     87% 0.00in /  0mm
04:29 19.1 °F /  -7.2 °C 15.9 °F /  -8.9 °C 30.39in /  1029hPa Calm     87% 0.00in /  0mm
04:34 19.2 °F /  -7.1 °C 16.2 °F /  -8.8 °C 30.39in /  1029hPa Calm     88% 0.00in /  0mm
04:39 19.0 °F /  -7.2 °C 15.8 °F /  -9 °C 30.40in /  1029.3hPa Calm     87% 0.00in /  0mm
04:44 18.9 °F /  -7.3 °C 15.7 °F /  -9.1 °C 30.40in /  1029.3hPa Calm     87% 0.00in /  0mm
04:49 18.7 °F /  -7.4 °C 15.5 °F /  -9.2 °C 30.40in /  1029.3hPa Calm     87% 0.00in /  0mm
04:54 18.6 °F /  -7.4 °C 15.4 °F /  -9.2 °C 30.40in /  1029.3hPa Calm     87% 0.00in /  0mm
04:59 18.5 °F /  -7.5 °C 15.3 °F /  -9.3 °C 30.40in /  1029.3hPa Calm     87% 0.00in /  0mm
05:04 18.4 °F /  -7.6 °C 15.2 °F /  -9.3 °C 30.40in /  1029.3hPa Calm     87% 0.00in /  0mm
05:09 18.4 °F /  -7.6 °C 15.2 °F /  -9.3 °C 30.40in /  1029.3hPa Calm     87% 0.00in /  0mm
05:14 18.3 °F /  -7.6 °C 15.1 °F /  -9.4 °C 30.40in /  1029.3hPa Calm     87% 0.00in /  0mm
05:19 18.3 °F /  -7.6 °C 15.3 °F /  -9.3 °C 30.40in /  1029.3hPa Calm     88% 0.00in /  0mm
05:24 18.2 °F /  -7.7 °C 15.2 °F /  -9.3 °C 30.40in /  1029.3hPa Calm     88% 0.00in /  0mm
05:29 18.3 °F /  -7.6 °C 15.3 °F /  -9.3 °C 30.40in /  1029.3hPa Calm     88% 0.00in /  0mm
05:34 18.4 °F /  -7.6 °C 15.4 °F /  -9.2 °C 30.40in /  1029.3hPa Calm     88% 0.00in /  0mm
05:39 18.4 °F /  -7.6 °C 15.4 °F /  -9.2 °C 30.40in /  1029.3hPa Calm     88% 0.00in /  0mm
05:44 18.5 °F /  -7.5 °C 15.5 °F /  -9.2 °C 30.40in /  1029.3hPa Calm     88% 0.00in /  0mm
05:49 18.6 °F /  -7.4 °C 15.9 °F /  -8.9 °C 30.40in /  1029.3hPa Calm     89% 0.00in /  0mm
05:54 18.7 °F /  -7.4 °C 16.0 °F /  -8.9 °C 30.40in /  1029.3hPa Calm     89% 0.00in /  0mm
05:59 18.8 °F /  -7.3 °C 16.1 °F /  -8.8 °C 30.40in /  1029.3hPa Calm     89% 0.00in /  0mm
06:04 18.8 °F /  -7.3 °C 16.1 °F /  -8.8 °C 30.40in /  1029.3hPa Calm     89% 0.00in /  0mm
06:09 18.8 °F /  -7.3 °C 16.1 °F /  -8.8 °C 30.40in /  1029.3hPa Calm     89% 0.00in /  0mm
06:14 18.9 °F /  -7.3 °C 16.2 °F /  -8.8 °C 30.40in /  1029.3hPa Calm     89% 0.00in /  0mm
06:19 18.8 °F /  -7.3 °C 16.1 °F /  -8.8 °C 30.40in /  1029.3hPa Calm     89% 0.00in /  0mm
06:24 18.8 °F /  -7.3 °C 16.1 °F /  -8.8 °C 30.40in /  1029.3hPa Calm     89% 0.00in /  0mm
06:29 18.8 °F /  -7.3 °C 15.8 °F /  -9 °C 30.40in /  1029.3hPa Calm     88% 0.00in /  0mm
06:34 18.7 °F /  -7.4 °C 15.7 °F /  -9.1 °C 30.40in /  1029.3hPa Calm     88% 0.00in /  0mm
06:39 18.6 °F /  -7.4 °C 15.6 °F /  -9.1 °C 30.40in /  1029.3hPa Calm     88% 0.00in /  0mm
06:44 18.5 °F /  -7.5 °C 15.5 °F /  -9.2 °C 30.40in /  1029.3hPa Calm     88% 0.00in /  0mm
06:49 18.4 °F /  -7.6 °C 15.4 °F /  -9.2 °C 30.40in /  1029.3hPa Calm     88% 0.00in /  0mm
06:54 18.3 °F /  -7.6 °C 15.3 °F /  -9.3 °C 30.40in /  1029.3hPa Calm     88% 0.00in /  0mm
06:59 18.2 °F /  -7.7 °C 15.2 °F /  -9.3 °C 30.40in /  1029.3hPa Calm     88% 0.00in /  0mm
07:04 18.2 °F /  -7.7 °C 15.2 °F /  -9.3 °C 30.41in /  1029.7hPa Calm     88% 0.00in /  0mm
07:09 18.2 °F /  -7.7 °C 15.2 °F /  -9.3 °C 30.40in /  1029.3hPa Calm     88% 0.00in /  0mm
07:14 18.1 °F /  -7.7 °C 15.1 °F /  -9.4 °C 30.40in /  1029.3hPa Calm     88% 0.00in /  0mm
07:19 18.2 °F /  -7.7 °C 15.2 °F /  -9.3 °C 30.40in /  1029.3hPa Calm     88% 0.00in /  0mm
07:24 18.2 °F /  -7.7 °C 15.2 °F /  -9.3 °C 30.40in /  1029.3hPa Calm     88% 0.00in /  0mm
07:29 18.3 °F /  -7.6 °C 15.6 °F /  -9.1 °C 30.40in /  1029.3hPa Calm     89% 0.00in /  0mm
07:34 18.4 °F /  -7.6 °C 15.7 °F /  -9.1 °C 30.40in /  1029.3hPa Calm     89% 0.00in /  0mm
07:39 18.4 °F /  -7.6 °C 15.7 °F /  -9.1 °C 30.40in /  1029.3hPa Calm     89% 0.00in /  0mm
07:44 18.7 °F /  -7.4 °C 16.0 °F /  -8.9 °C 30.40in /  1029.3hPa SW 1.0mph /  1.6km/h 4.0mph /  6.4km/h 89% 0.00in /  0mm
07:49 19.2 °F /  -7.1 °C 16.7 °F /  -8.5 °C 30.40in /  1029.3hPa SSW 2.0mph /  3.2km/h 4.0mph /  6.4km/h 90% 0.00in /  0mm
07:54 19.7 °F /  -6.8 °C 17.2 °F /  -8.2 °C 30.40in /  1029.3hPa South 3.0mph /  4.8km/h 5.0mph /  8km/h 90% 0.00in /  0mm
07:59 20.3 °F /  -6.5 °C 17.8 °F /  -7.9 °C 30.40in /  1029.3hPa SSW 2.0mph /  3.2km/h 5.0mph /  8km/h 90% 0.00in /  0mm
08:04 20.8 °F /  -6.2 °C 18.6 °F /  -7.4 °C 30.40in /  1029.3hPa SSW 2.0mph /  3.2km/h 6.0mph /  9.7km/h 91% 0.00in /  0mm
08:09 21.2 °F /  -6 °C 18.7 °F /  -7.4 °C 30.40in /  1029.3hPa SSW 2.0mph /  3.2km/h 6.0mph /  9.7km/h 90% 0.00in /  0mm
08:14 21.6 °F /  -5.8 °C 19.1 °F /  -7.2 °C 30.40in /  1029.3hPa South 2.0mph /  3.2km/h 5.0mph /  8km/h 90% 0.00in /  0mm
08:19 22.0 °F /  -5.6 °C 19.5 °F /  -6.9 °C 30.41in /  1029.7hPa SSW 2.0mph /  3.2km/h 6.0mph /  9.7km/h 90% 0.00in /  0mm
08:24 22.2 °F /  -5.4 °C 19.5 °F /  -6.9 °C 30.41in /  1029.7hPa SSW 2.0mph /  3.2km/h 4.0mph /  6.4km/h 89% 0.00in /  0mm
08:29 22.5 °F /  -5.3 °C 19.7 °F /  -6.8 °C 30.41in /  1029.7hPa South 3.0mph /  4.8km/h 6.0mph /  9.7km/h 89% 0.00in /  0mm
08:34 23.4 °F /  -4.8 °C 20.4 °F /  -6.4 °C 30.41in /  1029.7hPa South 3.0mph /  4.8km/h 6.0mph /  9.7km/h 88% 0.00in /  0mm
08:39 24.3 °F /  -4.3 °C 20.4 °F /  -6.4 °C 30.41in /  1029.7hPa SSW 1.0mph /  1.6km/h 4.0mph /  6.4km/h 85% 0.00in /  0mm
08:44 24.8 °F /  -4 °C 20.4 °F /  -6.4 °C 30.41in /  1029.7hPa SSW 4.0mph /  6.4km/h 5.0mph /  8km/h 83% 0.00in /  0mm
08:49 25.1 °F /  -3.8 °C 20.4 °F /  -6.4 °C 30.41in /  1029.7hPa SSW 2.0mph /  3.2km/h 5.0mph /  8km/h 82% 0.00in /  0mm
08:54 25.4 °F /  -3.7 °C 20.7 °F /  -6.3 °C 30.40in /  1029.3hPa South 2.0mph /  3.2km/h 6.0mph /  9.7km/h 82% 0.00in /  0mm
08:59 25.6 °F /  -3.6 °C 20.6 °F /  -6.3 °C 30.41in /  1029.7hPa South 2.0mph /  3.2km/h 6.0mph /  9.7km/h 81% 0.00in /  0mm
09:04 26.0 °F /  -3.3 °C 21.0 °F /  -6.1 °C 30.41in /  1029.7hPa South 2.0mph /  3.2km/h 5.0mph /  8km/h 81% 0.00in /  0mm
09:09 26.3 °F /  -3.2 °C 21.0 °F /  -6.1 °C 30.41in /  1029.7hPa South 2.0mph /  3.2km/h 4.0mph /  6.4km/h 80% 0.00in /  0mm
09:14 26.7 °F /  -2.9 °C 21.4 °F /  -5.9 °C 30.41in /  1029.7hPa SSW 2.0mph /  3.2km/h 4.0mph /  6.4km/h 80% 0.00in /  0mm
09:19 27.3 °F /  -2.6 °C 21.9 °F /  -5.6 °C 30.41in /  1029.7hPa SSW 2.0mph /  3.2km/h 4.0mph /  6.4km/h 80% 0.00in /  0mm
09:24 27.8 °F /  -2.3 °C 22.1 °F /  -5.5 °C 30.41in /  1029.7hPa WSW 4.0mph /  6.4km/h 5.0mph /  8km/h 79% 0.00in /  0mm
09:29 28.1 °F /  -2.2 °C 22.1 °F /  -5.5 °C 30.41in /  1029.7hPa South 3.0mph /  4.8km/h 7.0mph /  11.3km/h 78% 0.00in /  0mm
09:34 28.3 °F /  -2.1 °C 22.0 °F /  -5.6 °C 30.41in /  1029.7hPa SSW 3.0mph /  4.8km/h 7.0mph /  11.3km/h 77% 0.00in /  0mm
09:39 28.7 °F /  -1.8 °C 22.4 °F /  -5.3 °C 30.41in /  1029.7hPa SSW 1.0mph /  1.6km/h 7.0mph /  11.3km/h 77% 0.00in /  0mm
09:44 29.0 °F /  -1.7 °C 22.7 °F /  -5.2 °C 30.41in /  1029.7hPa SW 4.0mph /  6.4km/h 5.0mph /  8km/h 77% 0.00in /  0mm
09:49 29.2 °F /  -1.6 °C 22.6 °F /  -5.2 °C 30.42in /  1030hPa South 4.0mph /  6.4km/h 7.0mph /  11.3km/h 76% 0.00in /  0mm
09:54 29.6 °F /  -1.3 °C 23.0 °F /  -5 °C 30.42in /  1030hPa SW 4.0mph /  6.4km/h 6.0mph /  9.7km/h 76% 0.00in /  0mm
09:59 30.2 °F /  -1 °C 23.5 °F /  -4.7 °C 30.42in /  1030hPa SSW 2.0mph /  3.2km/h 6.0mph /  9.7km/h 76% 0.00in /  0mm
10:04 30.4 °F /  -0.9 °C 23.7 °F /  -4.6 °C 30.41in /  1029.7hPa SSW 2.0mph /  3.2km/h 5.0mph /  8km/h 76% 0.00in /  0mm
10:09 30.9 °F /  -0.6 °C 23.9 °F /  -4.5 °C 30.41in /  1029.7hPa SSW 2.0mph /  3.2km/h 5.0mph /  8km/h 75% 0.00in /  0mm
10:14 31.4 °F /  -0.3 °C 23.7 °F /  -4.6 °C 30.41in /  1029.7hPa SW 3.0mph /  4.8km/h 9.0mph /  14.5km/h 73% 0.00in /  0mm
10:19 31.9 °F /  -0.1 °C 24.2 °F /  -4.3 °C 30.42in /  1030hPa SW 4.0mph /  6.4km/h 9.0mph /  14.5km/h 73% 0.00in /  0mm
10:24 32.1 °F /  0.1 °C 24.1 °F /  -4.4 °C 30.41in /  1029.7hPa SW 6.0mph /  9.7km/h 8.0mph /  12.9km/h 72% 0.00in /  0mm
10:29 32.4 °F /  0.2 °C 24.0 °F /  -4.4 °C 30.42in /  1030hPa SW 5.0mph /  8km/h 8.0mph /  12.9km/h 71% 0.00in /  0mm
10:34 32.7 °F /  0.4 °C 24.3 °F /  -4.3 °C 30.42in /  1030hPa SW 5.0mph /  8km/h 11.0mph /  17.7km/h 71% 0.00in /  0mm
10:39 33.2 °F /  0.7 °C 25.1 °F /  -3.8 °C 30.41in /  1029.7hPa SW 7.0mph /  11.3km/h 8.0mph /  12.9km/h 72% 0.00in /  0mm
10:44 33.4 °F /  0.8 °C 25.7 °F /  -3.5 °C 30.42in /  1030hPa WSW 7.0mph /  11.3km/h 12.0mph /  19.3km/h 73% 0.00in /  0mm
10:49 33.3 °F /  0.7 °C 24.9 °F /  -3.9 °C 30.41in /  1029.7hPa WSW 14.0mph /  22.5km/h 14.0mph /  22.5km/h 71% 0.00in /  0mm
10:54 33.4 °F /  0.8 °C 25.0 °F /  -3.9 °C 30.41in /  1029.7hPa SSW 7.0mph /  11.3km/h 14.0mph /  22.5km/h 71% 0.00in /  0mm
13:40 36.1 °F /  2.3 °C 24.3 °F /  -4.3 °C 30.34in /  1027.3hPa SW 4.0mph /  6.4km/h 10.0mph /  16.1km/h 62% 0.00in /  0mm
16:34 34.9 °F /  1.6 °C 23.2 °F /  -4.9 °C 30.31in /  1026.3hPa SSW 2.0mph /  3.2km/h 4.0mph /  6.4km/h 62% 0.00in /  0mm
16:39 34.8 °F /  1.6 °C 23.9 °F /  -4.5 °C 30.32in /  1026.6hPa SSW 2.0mph /  3.2km/h 4.0mph /  6.4km/h 64% 0.00in /  0mm
16:49 34.6 °F /  1.4 °C 23.7 °F /  -4.6 °C 30.31in /  1026.3hPa SSW 3.0mph /  4.8km/h 5.0mph /  8km/h 64% 0.00in /  0mm
16:54 34.4 °F /  1.3 °C 23.5 °F /  -4.7 °C 30.31in /  1026.3hPa Calm   6.0mph /  9.7km/h 64% 0.00in /  0mm
16:59 34.3 °F /  1.3 °C 23.4 °F /  -4.8 °C 30.31in /  1026.3hPa SSW 3.0mph /  4.8km/h 6.0mph /  9.7km/h 64% 0.00in /  0mm
17:04 34.3 °F /  1.3 °C 23.4 °F /  -4.8 °C 30.31in /  1026.3hPa SSW 1.0mph /  1.6km/h 5.0mph /  8km/h 64% 0.00in /  0mm
17:09 34.1 °F /  1.2 °C 23.2 °F /  -4.9 °C 30.31in /  1026.3hPa SW 1.0mph /  1.6km/h 6.0mph /  9.7km/h 64% 0.00in /  0mm
17:14 34.1 °F /  1.2 °C 23.6 °F /  -4.7 °C 30.31in /  1026.3hPa SW 1.0mph /  1.6km/h 5.0mph /  8km/h 65% 0.00in /  0mm
17:19 34.1 °F /  1.2 °C 23.6 °F /  -4.7 °C 30.31in /  1026.3hPa SSW 2.0mph /  3.2km/h 4.0mph /  6.4km/h 65% 0.00in /  0mm
17:24 34.0 °F /  1.1 °C 23.5 °F /  -4.7 °C 30.31in /  1026.3hPa SW 2.0mph /  3.2km/h 5.0mph /  8km/h 65% 0.00in /  0mm
17:29 34.0 °F /  1.1 °C 23.5 °F /  -4.7 °C 30.31in /  1026.3hPa SW 1.0mph /  1.6km/h 5.0mph /  8km/h 65% 0.00in /  0mm
17:34 33.9 °F /  1.1 °C 23.7 °F /  -4.6 °C 30.32in /  1026.6hPa SW 1.0mph /  1.6km/h 4.0mph /  6.4km/h 66% 0.00in /  0mm
17:39 33.9 °F /  1.1 °C 23.4 °F /  -4.8 °C 30.32in /  1026.6hPa SW 3.0mph /  4.8km/h 6.0mph /  9.7km/h 65% 0.00in /  0mm
17:44 33.9 °F /  1.1 °C 23.4 °F /  -4.8 °C 30.31in /  1026.3hPa SW 4.0mph /  6.4km/h 7.0mph /  11.3km/h 65% 0.00in /  0mm
17:49 34.0 °F /  1.1 °C 23.8 °F /  -4.6 °C 30.31in /  1026.3hPa SW 3.0mph /  4.8km/h 7.0mph /  11.3km/h 66% 0.00in /  0mm
17:54 33.9 °F /  1.1 °C 23.7 °F /  -4.6 °C 30.31in /  1026.3hPa SSW 2.0mph /  3.2km/h 5.0mph /  8km/h 66% 0.00in /  0mm
17:59 33.9 °F /  1.1 °C 24.1 °F /  -4.4 °C 30.31in /  1026.3hPa SSW 4.0mph /  6.4km/h 5.0mph /  8km/h 67% 0.00in /  0mm
18:04 33.8 °F /  1 °C 24.0 °F /  -4.4 °C 30.31in /  1026.3hPa SSW 6.0mph /  9.7km/h 10.0mph /  16.1km/h 67% 0.00in /  0mm
18:09 33.8 °F /  1 °C 24.0 °F /  -4.4 °C 30.30in /  1026hPa South 3.0mph /  4.8km/h 7.0mph /  11.3km/h 67% 0.00in /  0mm
18:14 33.8 °F /  1 °C 23.6 °F /  -4.7 °C 30.30in /  1026hPa SSW 4.0mph /  6.4km/h 5.0mph /  8km/h 66% 0.00in /  0mm
18:19 33.8 °F /  1 °C 23.6 °F /  -4.7 °C 30.30in /  1026hPa SW 4.0mph /  6.4km/h 7.0mph /  11.3km/h 66% 0.00in /  0mm
18:24 33.9 °F /  1.1 °C 23.7 °F /  -4.6 °C 30.30in /  1026hPa SW 3.0mph /  4.8km/h 7.0mph /  11.3km/h 66% 0.00in /  0mm
18:29 33.9 °F /  1.1 °C 23.7 °F /  -4.6 °C 30.30in /  1026hPa SW 2.0mph /  3.2km/h 6.0mph /  9.7km/h 66% 0.00in /  0mm
18:34 33.9 °F /  1.1 °C 23.7 °F /  -4.6 °C 30.30in /  1026hPa Calm   3.0mph /  4.8km/h 66% 0.00in /  0mm
18:39 33.9 °F /  1.1 °C 23.4 °F /  -4.8 °C 30.30in /  1026hPa SW 1.0mph /  1.6km/h 3.0mph /  4.8km/h 65% 0.00in /  0mm
18:44 33.9 °F /  1.1 °C 23.7 °F /  -4.6 °C 30.30in /  1026hPa SW 1.0mph /  1.6km/h 4.0mph /  6.4km/h 66% 0.00in /  0mm
18:49 33.9 °F /  1.1 °C 23.7 °F /  -4.6 °C 30.30in /  1026hPa WSW 1.0mph /  1.6km/h 4.0mph /  6.4km/h 66% 0.00in /  0mm
18:54 33.9 °F /  1.1 °C 23.7 °F /  -4.6 °C 30.30in /  1026hPa Calm   1.0mph /  1.6km/h 66% 0.00in /  0mm
18:59 33.9 °F /  1.1 °C 23.7 °F /  -4.6 °C 30.30in /  1026hPa Calm   3.0mph /  4.8km/h 66% 0.00in /  0mm
19:04 33.9 °F /  1.1 °C 23.7 °F /  -4.6 °C 30.30in /  1026hPa SSW 2.0mph /  3.2km/h 2.0mph /  3.2km/h 66% 0.00in /  0mm
19:09 33.9 °F /  1.1 °C 23.7 °F /  -4.6 °C 30.29in /  1025.6hPa Calm   3.0mph /  4.8km/h 66% 0.00in /  0mm
19:14 33.9 °F /  1.1 °C 23.4 °F /  -4.8 °C 30.29in /  1025.6hPa Calm   1.0mph /  1.6km/h 65% 0.00in /  0mm
19:19 33.9 °F /  1.1 °C 23.4 °F /  -4.8 °C 30.29in /  1025.6hPa Calm   2.0mph /  3.2km/h 65% 0.00in /  0mm
19:24 33.9 °F /  1.1 °C 23.0 °F /  -5 °C 30.29in /  1025.6hPa Calm     64% 0.00in /  0mm
19:29 33.9 °F /  1.1 °C 23.0 °F /  -5 °C 30.29in /  1025.6hPa Calm     64% 0.00in /  0mm
19:34 33.9 °F /  1.1 °C 23.0 °F /  -5 °C 30.29in /  1025.6hPa Calm     64% 0.00in /  0mm
19:39 33.9 °F /  1.1 °C 23.0 °F /  -5 °C 30.29in /  1025.6hPa Calm     64% 0.00in /  0mm
19:44 33.8 °F /  1 °C 23.3 °F /  -4.8 °C 30.29in /  1025.6hPa Calm     65% 0.00in /  0mm
19:49 33.8 °F /  1 °C 23.6 °F /  -4.7 °C 30.29in /  1025.6hPa Calm     66% 0.00in /  0mm
19:54 33.8 °F /  1 °C 23.3 °F /  -4.8 °C 30.29in /  1025.6hPa Calm     65% 0.00in /  0mm
19:59 33.9 °F /  1.1 °C 23.0 °F /  -5 °C 30.29in /  1025.6hPa Calm     64% 0.00in /  0mm
20:04 33.9 °F /  1.1 °C 23.4 °F /  -4.8 °C 30.29in /  1025.6hPa Calm     65% 0.00in /  0mm
20:09 33.9 °F /  1.1 °C 23.4 °F /  -4.8 °C 30.29in /  1025.6hPa Calm     65% 0.00in /  0mm
20:14 34.0 °F /  1.1 °C 23.5 °F /  -4.7 °C 30.29in /  1025.6hPa Calm     65% 0.00in /  0mm
20:19 33.9 °F /  1.1 °C 23.4 °F /  -4.8 °C 30.29in /  1025.6hPa Calm     65% 0.00in /  0mm
20:24 34.0 °F /  1.1 °C 23.5 °F /  -4.7 °C 30.29in /  1025.6hPa Calm     65% 0.00in /  0mm
20:29 34.1 °F /  1.2 °C 23.6 °F /  -4.7 °C 30.29in /  1025.6hPa Calm     65% 0.00in /  0mm
20:34 34.1 °F /  1.2 °C 23.9 °F /  -4.5 °C 30.29in /  1025.6hPa Calm   1.0mph /  1.6km/h 66% 0.00in /  0mm
20:39 34.1 °F /  1.2 °C 24.3 °F /  -4.3 °C 30.29in /  1025.6hPa Calm   1.0mph /  1.6km/h 67% 0.00in /  0mm
20:44 34.1 °F /  1.2 °C 23.6 °F /  -4.7 °C 30.28in /  1025.3hPa Calm     65% 0.00in /  0mm
20:49 34.1 °F /  1.2 °C 23.9 °F /  -4.5 °C 30.29in /  1025.6hPa Calm     66% 0.00in /  0mm
20:54 34.1 °F /  1.2 °C 23.9 °F /  -4.5 °C 30.28in /  1025.3hPa Calm     66% 0.00in /  0mm
20:59 34.1 °F /  1.2 °C 23.9 °F /  -4.5 °C 30.28in /  1025.3hPa Calm     66% 0.00in /  0mm
21:04 34.1 °F /  1.2 °C 23.9 °F /  -4.5 °C 30.28in /  1025.3hPa Calm     66% 0.00in /  0mm
21:09 34.1 °F /  1.2 °C 23.9 °F /  -4.5 °C 30.28in /  1025.3hPa Calm     66% 0.00in /  0mm
21:14 34.1 °F /  1.2 °C 24.3 °F /  -4.3 °C 30.28in /  1025.3hPa Calm     67% 0.00in /  0mm
21:19 34.0 °F /  1.1 °C 24.5 °F /  -4.2 °C 30.28in /  1025.3hPa Calm     68% 0.00in /  0mm
21:24 34.0 °F /  1.1 °C 24.5 °F /  -4.2 °C 30.28in /  1025.3hPa Calm     68% 0.00in /  0mm
21:29 34.0 °F /  1.1 °C 24.2 °F /  -4.3 °C 30.28in /  1025.3hPa Calm     67% 0.00in /  0mm
21:34 34.0 °F /  1.1 °C 24.5 °F /  -4.2 °C 30.28in /  1025.3hPa Calm     68% 0.00in /  0mm
21:39 33.9 °F /  1.1 °C 24.4 °F /  -4.2 °C 30.28in /  1025.3hPa Calm     68% 0.00in /  0mm
21:44 33.9 °F /  1.1 °C 24.8 °F /  -4 °C 30.28in /  1025.3hPa Calm     69% 0.00in /  0mm
21:49 34.0 °F /  1.1 °C 24.9 °F /  -3.9 °C 30.28in /  1025.3hPa Calm     69% 0.00in /  0mm
21:54 34.0 °F /  1.1 °C 24.9 °F /  -3.9 °C 30.27in /  1024.9hPa Calm     69% 0.00in /  0mm
21:59 34.0 °F /  1.1 °C 24.9 °F /  -3.9 °C 30.27in /  1024.9hPa Calm     69% 0.00in /  0mm
22:04 34.0 °F /  1.1 °C 24.9 °F /  -3.9 °C 30.27in /  1024.9hPa Calm     69% 0.00in /  0mm
22:09 34.0 °F /  1.1 °C 24.9 °F /  -3.9 °C 30.27in /  1024.9hPa Calm     69% 0.00in /  0mm
22:14 34.0 °F /  1.1 °C 24.9 °F /  -3.9 °C 30.27in /  1024.9hPa Calm     69% 0.00in /  0mm
22:19 34.1 °F /  1.2 °C 24.6 °F /  -4.1 °C 30.26in /  1024.6hPa Calm     68% 0.00in /  0mm
22:24 34.2 °F /  1.2 °C 24.7 °F /  -4.1 °C 30.26in /  1024.6hPa Calm     68% 0.00in /  0mm
22:29 34.2 °F /  1.2 °C 24.7 °F /  -4.1 °C 30.26in /  1024.6hPa Calm     68% 0.00in /  0mm
22:34 34.2 °F /  1.2 °C 24.7 °F /  -4.1 °C 30.26in /  1024.6hPa Calm     68% 0.00in /  0mm
22:39 34.1 °F /  1.2 °C 24.3 °F /  -4.3 °C 30.26in /  1024.6hPa Calm     67% 0.00in /  0mm
22:44 34.1 °F /  1.2 °C 24.3 °F /  -4.3 °C 30.26in /  1024.6hPa Calm     67% 0.00in /  0mm
22:49 34.1 °F /  1.2 °C 24.6 °F /  -4.1 °C 30.26in /  1024.6hPa Calm     68% 0.00in /  0mm
22:54 34.1 °F /  1.2 °C 24.6 °F /  -4.1 °C 30.26in /  1024.6hPa Calm     68% 0.00in /  0mm
22:59 34.2 °F /  1.2 °C 25.4 °F /  -3.7 °C 30.26in /  1024.6hPa Calm     70% 0.00in /  0mm
23:04 34.0 °F /  1.1 °C 25.6 °F /  -3.6 °C 30.26in /  1024.6hPa Calm     71% 0.00in /  0mm
23:09 34.0 °F /  1.1 °C 25.9 °F /  -3.4 °C 30.26in /  1024.6hPa SSW 1.0mph /  1.6km/h 1.0mph /  1.6km/h 72% 0.00in /  0mm
23:14 33.9 °F /  1.1 °C 26.2 °F /  -3.2 °C 30.26in /  1024.6hPa Calm   2.0mph /  3.2km/h 73% 0.00in /  0mm
23:19 33.7 °F /  0.9 °C 26.3 °F /  -3.2 °C 30.25in /  1024.3hPa Calm   2.0mph /  3.2km/h 74% 0.00in /  0mm
23:24 33.7 °F /  0.9 °C 26.0 °F /  -3.3 °C 30.25in /  1024.3hPa Calm     73% 0.00in /  0mm
23:29 33.6 °F /  0.9 °C 26.8 °F /  -2.9 °C 30.25in /  1024.3hPa Calm     76% 0.00in /  0mm
23:34 33.4 °F /  0.8 °C 27.0 °F /  -2.8 °C 30.25in /  1024.3hPa Calm     77% 0.00in /  0mm
23:39 33.3 °F /  0.7 °C 27.2 °F /  -2.7 °C 30.25in /  1024.3hPa Calm     78% 0.00in /  0mm
23:44 33.3 °F /  0.7 °C 27.8 °F /  -2.3 °C 30.25in /  1024.3hPa Calm     80% 0.00in /  0mm
23:49 33.2 °F /  0.7 °C 27.4 °F /  -2.6 °C 30.25in /  1024.3hPa Calm     79% 0.00in /  0mm
23:54 33.2 °F /  0.7 °C 27.4 °F /  -2.6 °C 30.25in /  1024.3hPa Calm     79% 0.00in /  0mm
23:59 33.2 °F /  0.7 °C 28.0 °F /  -2.2 °C 30.25in /  1024.3hPa Calm     81% 0.00in /  0mm
Buffalo, New York, USA
Compliments of Weather Underground - 2 mb